Nissos Mykonos — SYJZ — position and weather

sailwx.info

Track history (hours):
 
Tides and Currents Weather Stations Pressure Air Temp Water Temp Dewpoint Dewpoint Depression Visibility Wind Speed Wind Dir Waves Ship Positions

Nissos Mykonos

Last reported at 2015-May-06 21:18 UTC. Time now 2015-May-07 07:38 UTC.
Position N 40°11' E 024°48'.

Length 141 m; draft 5.2 m.

Type: Passenger vessel. MMSI: 240389000.

Date/timePositionNaut miles runAvg speedWind from/ knotsBaromVisibWave heightAir tempDewpointWater temp
2015-May-06 21:18N 40°11' E 024°48'1722.6
2015-May-06 20:34N 40°26' E 024°38'2222.5
2015-May-06 19:34N 40°47' E 024°27'10 9.5
2015-May-06 18:34N 40°56' E 024°25'0 0.0
2015-May-06 17:34N 40°56' E 024°25'0 0.0
2015-May-06 16:33N 40°56' E 024°25'0 0.0
2015-May-06 15:34N 40°56' E 024°25'1918.6
2015-May-06 14:34N 40°38' E 024°29'19910.9
2015-May-05 20:17N 37°30' E 025°55'1622.5
2015-May-05 19:33N 37°31' E 025°35'1312.8
2015-May-05 18:34N 37°28' E 025°19'1815.7
2015-May-05 17:26N 37°26' E 024°57'5021.1
2015-May-05 15:05N 37°36' E 023°56'1223.1
2015-May-05 14:34N 37°41' E 023°42'1615.7
2015-May-05 13:34N 37°57' E 023°38'0 0.0
2015-May-05 12:34N 37°57' E 023°38'3 3.0
2015-May-05 11:34N 37°54' E 023°39'2222.4
2015-May-05 10:33N 37°37' E 023°57'4723.4
2015-May-05 08:32N 37°30' E 024°56'1414.0
2015-May-05 07:34N 37°30' E 025°14'2723.2
2015-May-05 06:24N 37°30' E 025°47'6 0.5
2015-May-04 17:08N 37°30' E 025°55'1323.2
2015-May-04 16:34N 37°31' E 025°39'2322.7
2015-May-04 15:34N 37°29' E 025°10'1513.4
2015-May-04 14:28N 37°31' E 024°52'4622.0
2015-May-04 12:23N 37°37' E 023°54'1721.2
2015-May-04 11:33N 37°48' E 023°38'8 8.4
2015-May-04 10:33N 37°57' E 023°38'0 0.0
2015-May-04 09:33N 37°57' E 023°38'0 0.0
2015-May-04 07:33N 37°57' E 023°38'0 0.0
2015-May-04 05:33N 37°57' E 023°38'0 0.0
2015-May-04 04:33N 37°57' E 023°38'0 0.0
2015-May-04 03:33N 37°57' E 023°38'0 0.0
2015-May-04 02:33N 37°57' E 023°38'0 0.0
2015-May-04 01:33N 37°57' E 023°38'0 0.0
2015-May-04 00:33N 37°57' E 023°38'0 0.0
2015-May-03 23:33N 37°57' E 023°38'0 0.0
2015-May-03 22:33N 37°57' E 023°38'0 0.0
2015-May-03 21:33N 37°57' E 023°38'0 0.0
2015-May-03 20:33N 37°57' E 023°38'1515.0
2015-May-03 19:34N 37°43' E 023°45'4822.6
2015-May-03 17:26N 37°31' E 024°44'1112.5
2015-May-03 16:32N 37°26' E 024°57'1717.2
2015-May-03 15:33N 37°28' E 025°18'1212.0
2015-May-03 14:34N 37°32' E 025°32'2423.4
2015-May-03 13:32N 37°38' E 026°01'166 9.7
2015-May-02 20:33N 40°13' E 024°46'2323.5
2015-May-02 19:33N 40°34' E 024°32'2323.0
2015-May-02 18:34N 40°56' E 024°24'0 0.4
2015-May-02 17:34N 40°56' E 024°25'0 0.0
2015-May-02 16:34N 40°56' E 024°25'0 0.0
2015-May-02 15:34N 40°56' E 024°25'0 0.0
2015-May-02 14:34N 40°56' E 024°25'0 0.0
2015-May-02 13:34N 40°56' E 024°25'0 0.0
2015-May-02 12:34N 40°56' E 024°25'1010.1
2015-May-02 11:34N 40°46' E 024°27'2323.3
2015-May-02 10:33N 40°24' E 024°38'2322.9
2015-May-02 09:33N 40°04' E 024°53'1410.8
2015-May-02 08:15N 39°52' E 025°03'141 4.8
2015-May-01 03:15N 37°35' E 025°43'1623.1
2015-May-01 02:33N 37°31' E 025°24'10 9.8
2015-May-01 01:33N 37°27' E 025°12'1111.4
2015-May-01 00:34N 37°28' E 024°58'6421.2
2015-Apr-30 21:34N 37°44' E 023°40'1212.3
2015-Apr-30 20:34N 37°57' E 023°38'0 0.0
2015-Apr-30 19:34N 37°57' E 023°38'0 0.0
2015-Apr-30 18:33N 37°57' E 023°38'1615.9
2015-Apr-30 17:33N 37°42' E 023°46'4723.4
2015-Apr-30 15:32N 37°31' E 024°44'1515.7
2015-Apr-30 14:33N 37°27' E 025°02'1716.7
2015-Apr-30 13:34N 37°31' E 025°23'2423.7
2015-Apr-30 12:34N 37°30' E 025°53'158 9.8
2015-Apr-29 20:27N 40°02' E 024°54'2123.6
2015-Apr-29 19:34N 40°20' E 024°41'2323.5
2015-Apr-29 18:33N 40°42' E 024°28'1514.5
2015-Apr-29 17:33N 40°56' E 024°25'0 0.0
2015-Apr-29 16:33N 40°56' E 024°25'0 0.0
2015-Apr-29 15:33N 40°56' E 024°25'1312.7
2015-Apr-29 14:34N 40°43' E 024°28'2323.2
2015-Apr-29 13:34N 40°22' E 024°40'2323.2
2015-Apr-29 12:33N 40°02' E 024°54'158 9.9
2015-Apr-28 20:32N 37°30' E 025°53'2323.2
2015-Apr-28 19:33N 37°31' E 025°25'1414.5
2015-Apr-28 18:33N 37°27' E 025°07'1211.1
2015-Apr-28 17:31N 37°31' E 024°54'4922.8
2015-Apr-28 15:22N 37°38' E 023°53'1721.0
2015-Apr-28 14:33N 37°50' E 023°37'7 6.9
2015-Apr-28 13:33N 37°57' E 023°38'0 0.0
2015-Apr-28 12:33N 37°57' E 023°38'0 0.1
2015-Apr-28 11:33N 37°57' E 023°38'2120.1
2015-Apr-28 10:30N 37°38' E 023°52'4523.0
2015-Apr-28 08:34N 37°31' E 024°48'1414.0
2015-Apr-28 07:34N 37°28' E 025°05'2323.2
2015-Apr-28 06:34N 37°31' E 025°34'2423.7
2015-Apr-28 05:33N 37°30' E 026°04'1 0.1
2015-Apr-27 17:30N 37°31' E 026°06'2122.8
2015-Apr-27 16:33N 37°31' E 025°39'2322.8
2015-Apr-27 15:33N 37°29' E 025°10'1111.4
2015-Apr-27 14:34N 37°31' E 024°56'4622.7
2015-Apr-27 12:31N 37°36' E 023°58'2021.1
2015-Apr-27 11:33N 37°48' E 023°38'8 8.2
2015-Apr-27 10:33N 37°57' E 023°38'0 0.0
2015-Apr-27 09:33N 37°57' E 023°38'0 0.0
2015-Apr-27 08:33N 37°57' E 023°38'0 0.0
2015-Apr-27 07:33N 37°57' E 023°38'0 0.0
2015-Apr-27 06:33N 37°57' E 023°38'0 0.0
2015-Apr-27 05:33N 37°57' E 023°38'0 0.0
2015-Apr-27 04:33N 37°57' E 023°38'0 0.0
2015-Apr-27 03:33N 37°57' E 023°38'0 0.0
2015-Apr-27 02:33N 37°57' E 023°38'0 0.0
2015-Apr-27 01:33N 37°57' E 023°38'0 0.0
2015-Apr-27 00:33N 37°57' E 023°38'0 0.0
2015-Apr-26 23:33N 37°57' E 023°38'0 0.0
2015-Apr-26 22:33N 37°57' E 023°38'0 0.0
2015-Apr-26 21:33N 37°57' E 023°38'  
Track history (hours):
 
Tides and Currents Weather Stations Pressure Air Temp Water Temp Dewpoint Dewpoint Depression Visibility Wind Speed Wind Dir Waves Ship Positions

Nissos Mykonos

Last reported at 2015-May-06 21:18 UTC. Time now 2015-May-07 07:38 UTC.
Position N 40°11' E 024°48'.

Length 141 m; draft 5.2 m.

Type: Passenger vessel. MMSI: 240389000.

Date/timePositionNaut miles runAvg speedWind from/ knotsBaromVisibWave heightAir tempDewpointWater temp
2015-May-06 21:18N 40°11' E 024°48'1722.6
2015-May-06 20:34N 40°26' E 024°38'2222.5
2015-May-06 19:34N 40°47' E 024°27'10 9.5
2015-May-06 18:34N 40°56' E 024°25'0 0.0
2015-May-06 17:34N 40°56' E 024°25'0 0.0
2015-May-06 16:33N 40°56' E 024°25'0 0.0
2015-May-06 15:34N 40°56' E 024°25'1918.6
2015-May-06 14:34N 40°38' E 024°29'19910.9
2015-May-05 20:17N 37°30' E 025°55'1622.5
2015-May-05 19:33N 37°31' E 025°35'1312.8
2015-May-05 18:34N 37°28' E 025°19'1815.7
2015-May-05 17:26N 37°26' E 024°57'5021.1
2015-May-05 15:05N 37°36' E 023°56'1223.1
2015-May-05 14:34N 37°41' E 023°42'1615.7
2015-May-05 13:34N 37°57' E 023°38'0 0.0
2015-May-05 12:34N 37°57' E 023°38'3 3.0
2015-May-05 11:34N 37°54' E 023°39'2222.4
2015-May-05 10:33N 37°37' E 023°57'4723.4
2015-May-05 08:32N 37°30' E 024°56'1414.0
2015-May-05 07:34N 37°30' E 025°14'2723.2
2015-May-05 06:24N 37°30' E 025°47'6 0.5
2015-May-04 17:08N 37°30' E 025°55'1323.2
2015-May-04 16:34N 37°31' E 025°39'2322.7
2015-May-04 15:34N 37°29' E 025°10'1513.4
2015-May-04 14:28N 37°31' E 024°52'4622.0
2015-May-04 12:23N 37°37' E 023°54'1721.2
2015-May-04 11:33N 37°48' E 023°38'8 8.4
2015-May-04 10:33N 37°57' E 023°38'0 0.0
2015-May-04 09:33N 37°57' E 023°38'0 0.0
2015-May-04 07:33N 37°57' E 023°38'0 0.0
2015-May-04 05:33N 37°57' E 023°38'0 0.0
2015-May-04 04:33N 37°57' E 023°38'0 0.0
2015-May-04 03:33N 37°57' E 023°38'0 0.0
2015-May-04 02:33N 37°57' E 023°38'0 0.0
2015-May-04 01:33N 37°57' E 023°38'0 0.0
2015-May-04 00:33N 37°57' E 023°38'0 0.0
2015-May-03 23:33N 37°57' E 023°38'0 0.0
2015-May-03 22:33N 37°57' E 023°38'0 0.0
2015-May-03 21:33N 37°57' E 023°38'0 0.0
2015-May-03 20:33N 37°57' E 023°38'1515.0
2015-May-03 19:34N 37°43' E 023°45'4822.6
2015-May-03 17:26N 37°31' E 024°44'1112.5
2015-May-03 16:32N 37°26' E 024°57'1717.2
2015-May-03 15:33N 37°28' E 025°18'1212.0
2015-May-03 14:34N 37°32' E 025°32'2423.4
2015-May-03 13:32N 37°38' E 026°01'166 9.7
2015-May-02 20:33N 40°13' E 024°46'2323.5
2015-May-02 19:33N 40°34' E 024°32'2323.0
2015-May-02 18:34N 40°56' E 024°24'0 0.4
2015-May-02 17:34N 40°56' E 024°25'0 0.0
2015-May-02 16:34N 40°56' E 024°25'0 0.0
2015-May-02 15:34N 40°56' E 024°25'0 0.0
2015-May-02 14:34N 40°56' E 024°25'0 0.0
2015-May-02 13:34N 40°56' E 024°25'0 0.0
2015-May-02 12:34N 40°56' E 024°25'1010.1
2015-May-02 11:34N 40°46' E 024°27'2323.3
2015-May-02 10:33N 40°24' E 024°38'2322.9
2015-May-02 09:33N 40°04' E 024°53'1410.8
2015-May-02 08:15N 39°52' E 025°03'141 4.8
2015-May-01 03:15N 37°35' E 025°43'1623.1
2015-May-01 02:33N 37°31' E 025°24'10 9.8
2015-May-01 01:33N 37°27' E 025°12'1111.4
2015-May-01 00:34N 37°28' E 024°58'6421.2
2015-Apr-30 21:34N 37°44' E 023°40'1212.3
2015-Apr-30 20:34N 37°57' E 023°38'0 0.0
2015-Apr-30 19:34N 37°57' E 023°38'0 0.0
2015-Apr-30 18:33N 37°57' E 023°38'1615.9
2015-Apr-30 17:33N 37°42' E 023°46'4723.4
2015-Apr-30 15:32N 37°31' E 024°44'1515.7
2015-Apr-30 14:33N 37°27' E 025°02'1716.7
2015-Apr-30 13:34N 37°31' E 025°23'2423.7
2015-Apr-30 12:34N 37°30' E 025°53'158 9.8
2015-Apr-29 20:27N 40°02' E 024°54'2123.6
2015-Apr-29 19:34N 40°20' E 024°41'2323.5
2015-Apr-29 18:33N 40°42' E 024°28'1514.5
2015-Apr-29 17:33N 40°56' E 024°25'0 0.0
2015-Apr-29 16:33N 40°56' E 024°25'0 0.0
2015-Apr-29 15:33N 40°56' E 024°25'1312.7
2015-Apr-29 14:34N 40°43' E 024°28'2323.2
2015-Apr-29 13:34N 40°22' E 024°40'2323.2
2015-Apr-29 12:33N 40°02' E 024°54'158 9.9
2015-Apr-28 20:32N 37°30' E 025°53'2323.2
2015-Apr-28 19:33N 37°31' E 025°25'1414.5
2015-Apr-28 18:33N 37°27' E 025°07'1211.1
2015-Apr-28 17:31N 37°31' E 024°54'4922.8
2015-Apr-28 15:22N 37°38' E 023°53'1721.0
2015-Apr-28 14:33N 37°50' E 023°37'7 6.9
2015-Apr-28 13:33N 37°57' E 023°38'0 0.0
2015-Apr-28 12:33N 37°57' E 023°38'0 0.1
2015-Apr-28 11:33N 37°57' E 023°38'2120.1
2015-Apr-28 10:30N 37°38' E 023°52'4523.0
2015-Apr-28 08:34N 37°31' E 024°48'1414.0
2015-Apr-28 07:34N 37°28' E 025°05'2323.2
2015-Apr-28 06:34N 37°31' E 025°34'2423.7
2015-Apr-28 05:33N 37°30' E 026°04'1 0.1
2015-Apr-27 17:30N 37°31' E 026°06'2122.8
2015-Apr-27 16:33N 37°31' E 025°39'2322.8
2015-Apr-27 15:33N 37°29' E 025°10'1111.4
2015-Apr-27 14:34N 37°31' E 024°56'4622.7
2015-Apr-27 12:31N 37°36' E 023°58'2021.1
2015-Apr-27 11:33N 37°48' E 023°38'8 8.2
2015-Apr-27 10:33N 37°57' E 023°38'0 0.0
2015-Apr-27 09:33N 37°57' E 023°38'0 0.0
2015-Apr-27 08:33N 37°57' E 023°38'0 0.0
2015-Apr-27 07:33N 37°57' E 023°38'0 0.0
2015-Apr-27 06:33N 37°57' E 023°38'0 0.0
2015-Apr-27 05:33N 37°57' E 023°38'0 0.0
2015-Apr-27 04:33N 37°57' E 023°38'0 0.0
2015-Apr-27 03:33N 37°57' E 023°38'0 0.0
2015-Apr-27 02:33N 37°57' E 023°38'0 0.0
2015-Apr-27 01:33N 37°57' E 023°38'0 0.0
2015-Apr-27 00:33N 37°57' E 023°38'0 0.0
2015-Apr-26 23:33N 37°57' E 023°38'0 0.0
2015-Apr-26 22:33N 37°57' E 023°38'0 0.0
2015-Apr-26 21:33N 37°57' E 023°38'  

Dump ship's entire track history